createdAt,value
2023-03-06T00:01:32.868Z,10.20
2023-03-06T00:04:04.891Z,9.77
2023-03-06T00:06:37.365Z,10.45
2023-03-06T00:09:10.510Z,9.88
2023-03-06T00:11:42.973Z,9.35
2023-03-06T00:14:16.480Z,8.90
2023-03-06T00:16:48.947Z,8.67
2023-03-06T00:19:20.838Z,9.82
2023-03-06T00:21:53.721Z,9.15
2023-03-06T00:24:25.699Z,9.43
2023-03-06T00:26:58.187Z,9.40
2023-03-06T00:29:30.195Z,9.23
2023-03-06T00:32:02.856Z,9.65
2023-03-06T00:34:34.815Z,9.32
2023-03-06T00:37:07.447Z,9.65
2023-03-06T00:39:39.419Z,10.32
2023-03-06T00:42:12.214Z,9.60
2023-03-06T00:44:44.306Z,9.27
2023-03-06T00:47:19.731Z,9.27
2023-03-06T00:49:51.694Z,9.95
2023-03-06T00:52:24.472Z,9.88
2023-03-06T00:54:56.661Z,9.23
2023-03-06T00:57:29.015Z,8.88
2023-03-06T01:00:03.351Z,9.05
2023-03-06T01:02:35.747Z,9.52
2023-03-06T01:05:08.592Z,9.60
2023-03-06T01:07:43.284Z,9.53
2023-03-06T01:10:15.169Z,10.70
2023-03-06T01:12:47.608Z,9.68
2023-03-06T01:15:20.323Z,10.75
2023-03-06T01:17:54.687Z,10.32
2023-03-06T01:20:27.282Z,9.97
2023-03-06T01:22:59.691Z,9.65
2023-03-06T01:25:33.293Z,9.60
2023-03-06T01:28:05.674Z,10.05
2023-03-06T01:30:37.525Z,10.52
2023-03-06T01:33:09.930Z,10.77
2023-03-06T01:35:41.875Z,11.35
2023-03-06T01:38:15.114Z,10.23
2023-03-06T01:40:47.186Z,10.55
2023-03-06T01:43:28.616Z,10.65
2023-03-06T01:46:28.383Z,10.53
2023-03-06T01:49:26.830Z,9.77
2023-03-06T01:52:05.643Z,10.30
2023-03-06T01:54:47.537Z,9.82
2023-03-06T01:57:44.465Z,10.30
2023-03-06T02:00:21.559Z,10.30
2023-03-06T02:03:11.479Z,10.55
2023-03-06T02:05:46.931Z,10.40
2023-03-06T02:08:22.516Z,10.25
2023-03-06T02:11:16.248Z,10.20
2023-03-06T02:13:49.842Z,9.47
2023-03-06T02:16:29.181Z,9.20
2023-03-06T02:19:02.360Z,10.68
2023-03-06T02:21:37.603Z,10.27
2023-03-06T02:24:37.734Z,10.77
2023-03-06T02:27:14.481Z,10.63
2023-03-06T02:29:48.041Z,10.98
2023-03-06T02:32:20.126Z,11.10
2023-03-06T02:34:56.931Z,12.75
2023-03-06T02:37:29.561Z,11.90
2023-03-06T02:40:24.640Z,11.00
2023-03-06T02:42:58.553Z,10.73
2023-03-06T02:45:38.572Z,11.75
2023-03-06T02:48:13.261Z,11.13
2023-03-06T02:50:49.494Z,11.85
2023-03-06T02:53:22.696Z,11.97
2023-03-06T02:55:55.034Z,10.48
2023-03-06T02:58:27.906Z,10.75
2023-03-06T03:01:00.390Z,11.73
2023-03-06T03:03:51.010Z,11.50
2023-03-06T03:09:19.401Z,10.63
2023-03-06T03:11:52.418Z,10.93
2023-03-06T03:14:25.176Z,11.35
2023-03-06T03:16:58.372Z,11.40
2023-03-06T03:19:32.962Z,11.77
2023-03-06T03:22:05.053Z,12.05
2023-03-06T03:24:38.008Z,10.82
2023-03-06T03:27:10.986Z,11.70
2023-03-06T03:29:43.924Z,12.18
2023-03-06T03:32:16.026Z,12.07
2023-03-06T03:34:51.803Z,11.00
2023-03-06T03:37:24.775Z,11.05
2023-03-06T03:39:57.574Z,11.50
2023-03-06T03:42:29.594Z,10.93
2023-03-06T03:45:02.853Z,10.60
2023-03-06T03:47:35.912Z,10.88
2023-03-06T03:50:09.820Z,11.77
2023-03-06T03:52:42.916Z,10.68
2023-03-06T03:55:18.051Z,10.45
2023-03-06T03:57:50.572Z,10.17
2023-03-06T04:00:23.230Z,10.13
2023-03-06T04:03:06.635Z,9.65
2023-03-06T04:05:43.503Z,10.23
2023-03-06T04:08:18.612Z,10.25
2023-03-06T04:10:56.010Z,10.43
2023-03-06T04:13:29.403Z,10.95
2023-03-06T04:16:02.747Z,10.15
2023-03-06T04:18:40.695Z,10.35
2023-03-06T04:21:13.592Z,10.60
2023-03-06T04:23:46.127Z,11.93
2023-03-06T04:26:20.807Z,12.13
2023-03-06T04:28:53.698Z,11.13
2023-03-06T04:31:26.014Z,11.50
2023-03-06T04:34:04.086Z,12.10
2023-03-06T04:36:57.048Z,12.20
2023-03-06T04:42:44.054Z,14.07
2023-03-06T04:45:16.886Z,13.77
2023-03-06T04:47:49.225Z,14.55
2023-03-06T04:50:24.383Z,16.83
2023-03-06T04:52:56.286Z,16.63
2023-03-06T04:55:29.689Z,15.85
2023-03-06T04:58:01.575Z,16.75
2023-03-06T05:00:34.324Z,16.70
2023-03-06T05:03:06.631Z,15.33
2023-03-06T05:05:39.045Z,15.70
2023-03-06T05:08:15.272Z,15.10
2023-03-06T05:10:57.058Z,15.45
2023-03-06T05:13:29.902Z,15.23
2023-03-06T05:16:06.954Z,14.60
2023-03-06T05:18:42.591Z,15.50
2023-03-06T05:21:14.959Z,14.73
2023-03-06T05:23:47.555Z,13.93
2023-03-06T05:26:20.282Z,14.05
2023-03-06T05:28:52.607Z,14.23
2023-03-06T05:31:24.998Z,18.17
2023-03-06T05:33:59.367Z,14.52
2023-03-06T05:36:31.702Z,14.73
2023-03-06T05:39:04.276Z,16.50
2023-03-06T05:41:36.345Z,14.40
2023-03-06T05:44:09.155Z,14.85
2023-03-06T05:46:41.012Z,14.70
2023-03-06T05:49:13.980Z,14.70
2023-03-06T05:51:45.878Z,13.80
2023-03-06T05:54:18.664Z,12.90
2023-03-06T05:56:51.470Z,12.57
2023-03-06T05:59:29.225Z,12.70
2023-03-06T06:02:01.489Z,11.50
2023-03-06T06:04:35.214Z,13.38
2023-03-06T06:07:07.828Z,12.63
2023-03-06T06:09:41.061Z,12.43
2023-03-06T06:12:14.423Z,12.27
2023-03-06T06:14:47.845Z,12.50
2023-03-06T06:17:20.999Z,12.77
2023-03-06T06:19:53.346Z,13.83
2023-03-06T06:22:26.173Z,13.07
2023-03-06T06:24:58.947Z,14.60
2023-03-06T06:27:30.851Z,15.68
2023-03-06T06:30:05.603Z,16.00
2023-03-06T06:32:38.613Z,17.73
2023-03-06T06:35:12.028Z,17.38
2023-03-06T06:37:44.777Z,16.65
2023-03-06T06:40:19.755Z,17.88
2023-03-06T06:42:52.933Z,17.52
2023-03-06T06:48:18.151Z,17.17
2023-03-06T06:51:00.530Z,18.10
2023-03-06T06:53:33.309Z,18.33
2023-03-06T06:56:07.121Z,17.23
2023-03-06T06:58:39.004Z,17.03
2023-03-06T07:01:15.418Z,17.05
2023-03-06T07:03:47.984Z,18.50
2023-03-06T07:06:19.919Z,17.23
2023-03-06T07:08:56.125Z,17.17
2023-03-06T07:11:28.642Z,16.53
2023-03-06T07:14:02.439Z,17.15
2023-03-06T07:16:34.407Z,16.15
2023-03-06T07:22:21.858Z,15.98
2023-03-06T07:24:55.553Z,16.03
2023-03-06T07:27:27.482Z,17.25
2023-03-06T07:30:01.176Z,16.40
2023-03-06T07:32:33.581Z,15.63
2023-03-06T07:35:19.635Z,15.65
2023-03-06T07:37:54.039Z,15.37
2023-03-06T07:43:20.323Z,16.90
2023-03-06T07:46:01.358Z,15.68
2023-03-06T07:48:35.144Z,15.23
2023-03-06T07:54:17.335Z,14.43
2023-03-06T07:56:52.828Z,16.05
2023-03-06T08:02:24.748Z,15.15
2023-03-06T08:04:56.917Z,14.67
2023-03-06T08:07:30.553Z,15.43
2023-03-06T08:10:02.502Z,15.13
2023-03-06T08:15:30.266Z,13.88
2023-03-06T08:18:04.305Z,13.77
2023-03-06T08:20:36.678Z,13.65
2023-03-06T08:23:11.476Z,14.75
2023-03-06T08:25:43.409Z,13.88
2023-03-06T08:28:37.350Z,13.27
2023-03-06T08:31:36.440Z,14.87
2023-03-06T08:34:13.397Z,13.57
2023-03-06T08:36:45.736Z,12.27
2023-03-06T08:39:19.894Z,12.57
2023-03-06T08:44:45.197Z,12.77
2023-03-06T08:50:11.805Z,12.57
2023-03-06T08:52:47.679Z,11.88
2023-03-06T08:55:23.809Z,13.25
2023-03-06T08:57:55.680Z,12.77
2023-03-06T09:00:29.444Z,13.10
2023-03-06T09:03:01.414Z,13.57
2023-03-06T09:05:34.646Z,12.68
2023-03-06T09:08:07.707Z,12.43
2023-03-06T09:10:50.019Z,11.87
2023-03-06T09:13:22.691Z,12.73
2023-03-06T09:16:16.495Z,12.27
2023-03-06T09:19:07.218Z,11.38
2023-03-06T09:21:39.974Z,12.35
2023-03-06T09:24:12.055Z,11.63
2023-03-06T09:26:47.594Z,12.57
2023-03-06T09:29:21.270Z,11.95
2023-03-06T09:31:55.140Z,11.88
2023-03-06T09:34:27.695Z,11.35
2023-03-06T09:37:03.341Z,10.97
2023-03-06T09:39:35.737Z,10.07
2023-03-06T09:42:15.426Z,10.52
2023-03-06T09:44:54.734Z,10.23
2023-03-06T09:47:50.710Z,10.70
2023-03-06T09:50:36.094Z,9.90
2023-03-06T09:53:53.112Z,9.45
2023-03-06T09:56:32.224Z,8.88
2023-03-06T09:59:25.243Z,9.30
2023-03-06T10:02:09.161Z,11.55
2023-03-06T10:04:46.543Z,10.95
2023-03-06T10:07:24.738Z,9.70
2023-03-06T10:10:16.301Z,9.90
2023-03-06T10:13:17.941Z,9.57
2023-03-06T10:16:29.411Z,9.95
2023-03-06T10:19:16.072Z,8.93
2023-03-06T10:22:25.184Z,9.00
2023-03-06T10:25:28.352Z,8.90
2023-03-06T10:28:19.068Z,8.30
2023-03-06T10:34:24.995Z,9.75
2023-03-06T10:37:05.233Z,10.15
2023-03-06T10:39:39.236Z,9.02
2023-03-06T10:42:11.491Z,10.43
2023-03-06T10:44:43.833Z,10.20
2023-03-06T10:47:35.619Z,9.50
2023-03-06T10:50:25.695Z,10.00
2023-03-06T10:53:07.931Z,10.10
2023-03-06T10:55:40.313Z,10.48
2023-03-06T10:58:24.714Z,10.20
2023-03-06T11:01:31.131Z,9.18
2023-03-06T11:04:25.705Z,9.68
2023-03-06T11:07:24.438Z,10.13
2023-03-06T11:10:25.538Z,10.40
2023-03-06T11:13:00.691Z,11.18
2023-03-06T11:15:32.601Z,10.10
2023-03-06T11:18:09.862Z,9.98
2023-03-06T11:20:52.886Z,9.60
2023-03-06T11:23:41.655Z,9.68
2023-03-06T11:26:16.603Z,9.15
2023-03-06T11:29:38.461Z,10.45
2023-03-06T11:32:16.644Z,9.73
2023-03-06T11:34:56.379Z,8.73
2023-03-06T11:38:07.390Z,8.35
2023-03-06T11:40:57.261Z,9.75
2023-03-06T11:43:53.606Z,8.75
2023-03-06T11:46:39.822Z,8.65
2023-03-06T11:49:24.342Z,8.43
2023-03-06T11:52:00.363Z,8.55
2023-03-06T11:54:33.970Z,8.15
2023-03-06T11:57:19.099Z,8.90
2023-03-06T12:00:04.856Z,8.45
2023-03-06T12:03:03.040Z,8.32
2023-03-06T12:06:09.912Z,7.45
2023-03-06T12:09:12.822Z,7.72
2023-03-06T12:12:32.154Z,7.63
2023-03-06T12:15:03.989Z,7.40
2023-03-06T12:18:00.260Z,6.95
2023-03-06T12:21:11.596Z,7.18
2023-03-06T12:24:12.648Z,6.85
2023-03-06T12:27:09.478Z,7.43
2023-03-06T12:30:10.781Z,7.65
2023-03-06T12:33:17.889Z,6.68
2023-03-06T12:36:21.100Z,7.05
2023-03-06T12:39:08.958Z,6.40
2023-03-06T12:41:53.260Z,7.73
2023-03-06T12:44:50.322Z,6.70
2023-03-06T12:47:27.882Z,6.63
2023-03-06T12:50:08.609Z,6.65
2023-03-06T12:52:41.930Z,7.63
2023-03-06T12:55:21.171Z,6.20
2023-03-06T12:57:55.059Z,6.65
2023-03-06T13:00:34.095Z,6.30
2023-03-06T13:03:26.022Z,7.25
2023-03-06T13:06:39.200Z,7.07
2023-03-06T13:09:29.516Z,6.72
2023-03-06T13:12:18.968Z,7.07
2023-03-06T13:14:55.451Z,7.35
2023-03-06T13:17:35.284Z,6.80
2023-03-06T13:20:13.413Z,6.80
2023-03-06T13:22:47.786Z,6.67
2023-03-06T13:25:19.810Z,7.13
2023-03-06T13:27:55.404Z,7.20
2023-03-06T13:30:39.376Z,6.18
2023-03-06T13:33:31.415Z,6.70
2023-03-06T13:36:42.129Z,6.33
2023-03-06T13:39:14.715Z,6.40
2023-03-06T13:41:59.288Z,7.35
2023-03-06T13:44:31.770Z,6.88
2023-03-06T13:47:21.463Z,7.35
2023-03-06T13:49:54.079Z,6.70
2023-03-06T13:53:16.813Z,6.80
2023-03-06T13:56:21.623Z,6.85
2023-03-06T13:59:27.568Z,6.32
2023-03-06T14:02:47.339Z,6.47
2023-03-06T14:05:20.468Z,7.03
2023-03-06T14:08:12.165Z,7.35
2023-03-06T14:10:47.210Z,8.02
2023-03-06T14:13:23.963Z,8.45
2023-03-06T14:15:56.692Z,8.35
2023-03-06T14:18:44.534Z,7.87
2023-03-06T14:21:32.561Z,6.53
2023-03-06T14:24:05.889Z,6.80
2023-03-06T14:26:52.097Z,6.68
2023-03-06T14:29:27.041Z,6.30
2023-03-06T14:32:01.752Z,6.00
2023-03-06T14:34:40.534Z,6.75
2023-03-06T14:37:25.441Z,6.88
2023-03-06T14:39:58.694Z,7.07
2023-03-06T14:42:31.367Z,7.18
2023-03-06T14:45:18.680Z,6.85
2023-03-06T14:47:53.328Z,6.43
2023-03-06T14:50:33.052Z,6.55
2023-03-06T14:53:17.329Z,6.70
2023-03-06T14:55:51.643Z,6.55
2023-03-06T14:58:50.527Z,6.93
2023-03-06T15:01:41.239Z,7.40
2023-03-06T15:04:56.549Z,6.53
2023-03-06T15:07:32.989Z,6.70
2023-03-06T15:10:10.445Z,7.53
2023-03-06T15:12:42.760Z,7.03
2023-03-06T15:15:14.518Z,7.10
2023-03-06T15:17:48.342Z,7.60
2023-03-06T15:20:50.603Z,7.03
2023-03-06T15:23:34.578Z,6.65
2023-03-06T15:26:33.199Z,7.17
2023-03-06T15:29:10.055Z,6.68
2023-03-06T15:31:44.613Z,7.05
2023-03-06T15:34:23.977Z,7.53
2023-03-06T15:36:57.689Z,7.10
2023-03-06T15:39:40.224Z,7.57
2023-03-06T15:42:25.527Z,7.28
2023-03-06T15:45:03.563Z,7.63
2023-03-06T15:47:36.205Z,7.15
2023-03-06T15:50:24.710Z,7.68
2023-03-06T15:52:57.504Z,7.60
2023-03-06T15:55:29.390Z,8.23
2023-03-06T15:58:03.644Z,8.40
2023-03-06T16:00:40.819Z,8.00
2023-03-06T16:03:14.033Z,7.07
2023-03-06T16:05:46.097Z,7.50
2023-03-06T16:08:18.779Z,7.78
2023-03-06T16:10:52.454Z,8.40
2023-03-06T16:13:29.142Z,7.68
2023-03-06T16:16:01.081Z,7.57
2023-03-06T16:18:34.160Z,7.50
2023-03-06T16:21:06.698Z,7.65
2023-03-06T16:23:39.274Z,8.52
2023-03-06T16:26:31.197Z,9.50
2023-03-06T16:29:04.167Z,11.18
2023-03-06T16:31:36.033Z,9.33
2023-03-06T16:34:08.643Z,12.13
2023-03-06T16:36:40.902Z,11.20
2023-03-06T16:39:22.723Z,9.75
2023-03-06T16:41:55.626Z,9.73
2023-03-06T16:44:28.194Z,8.40
2023-03-06T16:47:01.307Z,7.80
2023-03-06T16:49:33.973Z,7.00
2023-03-06T16:52:06.269Z,7.20
2023-03-06T16:54:38.956Z,8.10
2023-03-06T16:57:15.017Z,8.47
2023-03-06T16:59:48.164Z,8.40
2023-03-06T17:02:20.084Z,7.40
2023-03-06T17:04:52.730Z,7.53
2023-03-06T17:07:25.046Z,8.25
2023-03-06T17:09:58.080Z,8.03
2023-03-06T17:12:30.540Z,8.48
2023-03-06T17:15:04.614Z,8.00
2023-03-06T17:17:39.148Z,8.45
2023-03-06T17:20:16.585Z,8.23
2023-03-06T17:22:48.920Z,8.70
2023-03-06T17:25:21.638Z,7.45
2023-03-06T17:27:53.543Z,8.55
2023-03-06T17:30:26.125Z,7.95
2023-03-06T17:32:58.453Z,8.07
2023-03-06T17:35:31.138Z,8.07
2023-03-06T17:38:03.554Z,10.10
2023-03-06T17:40:36.232Z,7.57
2023-03-06T17:43:08.194Z,8.35
2023-03-06T17:45:40.858Z,7.95
2023-03-06T17:48:13.390Z,10.30
2023-03-06T17:50:54.702Z,7.20
2023-03-06T17:53:27.422Z,7.95
2023-03-06T17:56:00.119Z,8.30
2023-03-06T17:58:32.282Z,7.55
2023-03-06T18:01:17.426Z,8.33
2023-03-06T18:03:50.928Z,8.23
2023-03-06T18:06:25.212Z,7.75
2023-03-06T18:08:57.610Z,8.00
2023-03-06T18:11:30.729Z,7.53
2023-03-06T18:14:05.386Z,7.70
2023-03-06T18:16:37.542Z,7.55
2023-03-06T18:19:11.510Z,7.85
2023-03-06T18:21:43.610Z,8.10
2023-03-06T18:24:16.204Z,8.38
2023-03-06T18:26:48.202Z,8.17
2023-03-06T18:29:21.190Z,8.10
2023-03-06T18:31:53.190Z,8.55
2023-03-06T18:34:26.380Z,9.07
2023-03-06T18:36:58.289Z,8.27
2023-03-06T18:39:32.617Z,8.87
2023-03-06T18:42:05.346Z,7.97
2023-03-06T18:44:38.105Z,8.18
2023-03-06T18:47:15.189Z,9.10
2023-03-06T18:52:40.777Z,8.13
2023-03-06T18:55:31.952Z,7.15
2023-03-06T18:58:25.085Z,7.32
2023-03-06T19:00:59.450Z,8.27
2023-03-06T19:03:34.791Z,7.85
2023-03-06T19:06:13.680Z,7.50
2023-03-06T19:08:46.038Z,8.55
2023-03-06T19:11:18.871Z,8.15
2023-03-06T19:13:50.926Z,8.13
2023-03-06T19:16:45.358Z,8.35
2023-03-06T19:19:17.343Z,8.10
2023-03-06T19:21:50.296Z,9.38
2023-03-06T19:24:26.525Z,8.10
2023-03-06T19:26:59.725Z,7.60
2023-03-06T19:29:53.580Z,8.30
2023-03-06T19:32:26.594Z,9.03
2023-03-06T19:34:59.520Z,9.07
2023-03-06T19:37:33.517Z,8.35
2023-03-06T19:40:06.722Z,8.68
2023-03-06T19:42:59.637Z,7.68
2023-03-06T19:45:31.533Z,8.40
2023-03-06T19:48:06.663Z,8.23
2023-03-06T19:50:41.943Z,8.75
2023-03-06T19:53:17.673Z,8.45
2023-03-06T19:55:49.532Z,9.32
2023-03-06T19:58:25.014Z,10.17
2023-03-06T20:01:07.798Z,10.07
2023-03-06T20:03:41.460Z,9.98
2023-03-06T20:06:18.414Z,10.15
2023-03-06T20:08:51.185Z,10.30
2023-03-06T20:11:27.084Z,10.13
2023-03-06T20:14:02.996Z,8.98
2023-03-06T20:16:39.297Z,8.60
2023-03-06T20:19:12.071Z,8.30
2023-03-06T20:21:44.971Z,9.05
2023-03-06T20:24:17.933Z,9.03
2023-03-06T20:26:51.528Z,8.98
2023-03-06T20:29:27.286Z,8.90
2023-03-06T20:32:00.507Z,9.20
2023-03-06T20:34:32.803Z,8.43
2023-03-06T20:37:10.563Z,9.47
2023-03-06T20:39:43.293Z,8.52
2023-03-06T20:42:15.762Z,9.18
2023-03-06T20:44:48.526Z,8.80
2023-03-06T20:47:21.126Z,9.05
2023-03-06T20:49:53.054Z,8.77
2023-03-06T20:52:26.811Z,8.52
2023-03-06T20:54:58.817Z,12.88
2023-03-06T20:57:31.574Z,7.22
2023-03-06T21:00:06.514Z,8.75
2023-03-06T21:02:38.788Z,9.43
2023-03-06T21:05:11.578Z,9.18
2023-03-06T21:07:43.552Z,8.80
2023-03-06T21:10:16.390Z,8.10
2023-03-06T21:12:48.706Z,8.85
2023-03-06T21:15:21.143Z,7.90
2023-03-06T21:17:53.883Z,8.68
2023-03-06T21:20:26.237Z,7.90
2023-03-06T21:22:58.095Z,9.32
2023-03-06T21:25:31.530Z,8.73
2023-03-06T21:28:03.686Z,8.57
2023-03-06T21:30:36.442Z,8.02
2023-03-06T21:33:10.682Z,8.88
2023-03-06T21:35:47.412Z,8.02
2023-03-06T21:38:19.435Z,9.20
2023-03-06T21:40:52.267Z,8.27
2023-03-06T21:43:24.551Z,7.60
2023-03-06T21:45:58.152Z,8.40
2023-03-06T21:48:31.164Z,7.70
2023-03-06T21:51:16.297Z,7.80
2023-03-06T21:53:49.102Z,8.30
2023-03-06T21:56:24.973Z,8.52
2023-03-06T21:59:19.320Z,8.68
2023-03-06T22:01:51.292Z,8.70
2023-03-06T22:04:26.602Z,8.55
2023-03-06T22:06:59.070Z,9.87
2023-03-06T22:09:31.390Z,8.80
2023-03-06T22:12:04.343Z,8.75
2023-03-06T22:14:37.378Z,8.18
2023-03-06T22:17:09.281Z,8.68
2023-03-06T22:19:42.050Z,9.07
2023-03-06T22:22:14.449Z,9.32
2023-03-06T22:24:48.837Z,8.88
2023-03-06T22:27:21.757Z,9.52
2023-03-06T22:29:54.574Z,8.82
2023-03-06T22:32:27.392Z,8.70
2023-03-06T22:34:59.302Z,10.07
2023-03-06T22:37:32.358Z,9.10
2023-03-06T22:40:04.819Z,8.55
2023-03-06T22:42:37.525Z,8.73
2023-03-06T22:45:10.672Z,9.73
2023-03-06T22:47:42.598Z,10.35
2023-03-06T22:50:15.332Z,9.20
2023-03-06T22:52:47.710Z,9.60
2023-03-06T22:55:41.897Z,9.77
2023-03-06T22:58:14.609Z,9.03
2023-03-06T23:00:46.534Z,10.07
2023-03-06T23:03:19.440Z,9.68
2023-03-06T23:06:32.774Z,8.68
2023-03-06T23:09:21.368Z,9.55
2023-03-06T23:12:12.932Z,9.30
2023-03-06T23:15:04.285Z,8.80
2023-03-06T23:17:54.602Z,9.18
2023-03-06T23:20:45.944Z,10.07
2023-03-06T23:23:38.353Z,11.18
2023-03-06T23:26:14.453Z,9.00
2023-03-06T23:28:47.287Z,9.13
2023-03-06T23:31:29.218Z,8.93
2023-03-06T23:34:03.486Z,9.25
2023-03-06T23:36:38.741Z,8.85
2023-03-06T23:39:13.268Z,9.33
2023-03-06T23:41:45.154Z,9.48
2023-03-06T23:44:17.873Z,9.68
2023-03-06T23:46:50.217Z,9.70
2023-03-06T23:49:22.976Z,10.15
2023-03-06T23:51:56.969Z,9.37
2023-03-06T23:54:29.413Z,8.70
2023-03-06T23:57:02.452Z,10.10
2023-03-06T23:59:34.400Z,10.40
